sensor_id;sensor_type;location;lat;lon;timestamp;pressure;altitude;pressure_sealevel;temperature;humidity
59513;BME280;45330;51.634;5.562;2023-01-29T00:01:02;103016.25;;;-1.73;100.00
59513;BME280;45330;51.634;5.562;2023-01-29T00:03:28;102999.56;;;-1.80;100.00
59513;BME280;45330;51.634;5.562;2023-01-29T00:05:53;103007.53;;;-1.65;100.00
59513;BME280;45330;51.634;5.562;2023-01-29T00:08:19;102990.56;;;-1.64;100.00
59513;BME280;45330;51.634;5.562;2023-01-29T00:10:44;102990.81;;;-1.61;100.00
59513;BME280;45330;51.634;5.562;2023-01-29T00:13:09;102988.13;;;-1.63;100.00
59513;BME280;45330;51.634;5.562;2023-01-29T00:15:35;102976.72;;;-1.78;100.00
59513;BME280;45330;51.634;5.562;2023-01-29T00:18:00;102975.56;;;-1.82;100.00
59513;BME280;45330;51.634;5.562;2023-01-29T00:20:25;102966.53;;;-1.88;100.00
59513;BME280;45330;51.634;5.562;2023-01-29T00:22:51;102990.13;;;-1.81;100.00
59513;BME280;45330;51.634;5.562;2023-01-29T00:25:16;102968.22;;;-1.89;100.00
59513;BME280;45330;51.634;5.562;2023-01-29T00:27:42;102975.28;;;-1.97;100.00
59513;BME280;45330;51.634;5.562;2023-01-29T00:30:09;102953.25;;;-2.17;100.00
59513;BME280;45330;51.634;5.562;2023-01-29T00:32:38;102940.66;;;-2.26;100.00
59513;BME280;45330;51.634;5.562;2023-01-29T00:35:04;102964.50;;;-2.15;100.00
59513;BME280;45330;51.634;5.562;2023-01-29T00:37:30;102962.34;;;-2.20;100.00
59513;BME280;45330;51.634;5.562;2023-01-29T00:39:55;102942.50;;;-2.35;100.00
59513;BME280;45330;51.634;5.562;2023-01-29T00:42:21;102942.34;;;-2.36;100.00
59513;BME280;45330;51.634;5.562;2023-01-29T00:45:05;102937.13;;;-2.38;100.00
59513;BME280;45330;51.634;5.562;2023-01-29T00:47:31;102935.59;;;-2.36;100.00
59513;BME280;45330;51.634;5.562;2023-01-29T00:50:00;102927.97;;;-2.36;100.00
59513;BME280;45330;51.634;5.562;2023-01-29T00:52:26;102940.41;;;-2.29;100.00
59513;BME280;45330;51.634;5.562;2023-01-29T00:54:54;102933.28;;;-2.33;100.00
59513;BME280;45330;51.634;5.562;2023-01-29T00:57:20;102924.50;;;-2.36;100.00
59513;BME280;45330;51.634;5.562;2023-01-29T00:59:45;102905.28;;;-2.43;100.00
59513;BME280;45330;51.634;5.562;2023-01-29T01:02:10;102925.75;;;-2.31;100.00
59513;BME280;45330;51.634;5.562;2023-01-29T01:04:54;102915.59;;;-2.42;100.00
59513;BME280;45330;51.634;5.562;2023-01-29T01:07:20;102918.31;;;-2.50;100.00
59513;BME280;45330;51.634;5.562;2023-01-29T01:09:45;102931.81;;;-2.51;100.00
59513;BME280;45330;51.634;5.562;2023-01-29T01:12:30;102937.28;;;-2.47;100.00
59513;BME280;45330;51.634;5.562;2023-01-29T01:14:56;102926.19;;;-2.58;100.00
59513;BME280;45330;51.634;5.562;2023-01-29T01:17:21;102927.88;;;-2.58;100.00
59513;BME280;45330;51.634;5.562;2023-01-29T01:19:47;102921.22;;;-2.56;100.00
59513;BME280;45330;51.634;5.562;2023-01-29T01:22:12;102913.22;;;-2.61;100.00
59513;BME280;45330;51.634;5.562;2023-01-29T01:24:38;102923.41;;;-2.50;100.00
59513;BME280;45330;51.634;5.562;2023-01-29T01:27:04;102926.31;;;-2.46;100.00
59513;BME280;45330;51.634;5.562;2023-01-29T01:29:29;102919.28;;;-2.38;100.00
59513;BME280;45330;51.634;5.562;2023-01-29T01:31:55;102924.25;;;-2.29;100.00
59513;BME280;45330;51.634;5.562;2023-01-29T01:34:21;102944.56;;;-2.09;100.00
59513;BME280;45330;51.634;5.562;2023-01-29T01:36:47;102946.06;;;-2.00;100.00
59513;BME280;45330;51.634;5.562;2023-01-29T01:39:13;102949.75;;;-1.97;100.00
59513;BME280;45330;51.634;5.562;2023-01-29T01:41:38;102938.88;;;-1.94;100.00
59513;BME280;45330;51.634;5.562;2023-01-29T01:44:04;102935.56;;;-1.93;100.00
59513;BME280;45330;51.634;5.562;2023-01-29T01:46:35;102933.50;;;-1.87;100.00
59513;BME280;45330;51.634;5.562;2023-01-29T01:49:16;102935.78;;;-1.90;100.00
59513;BME280;45330;51.634;5.562;2023-01-29T01:51:45;102936.19;;;-1.85;100.00
59513;BME280;45330;51.634;5.562;2023-01-29T01:54:26;102925.59;;;-1.90;100.00
59513;BME280;45330;51.634;5.562;2023-01-29T01:57:00;102940.88;;;-1.80;100.00
59513;BME280;45330;51.634;5.562;2023-01-29T01:59:35;102945.44;;;-1.76;100.00
59513;BME280;45330;51.634;5.562;2023-01-29T02:02:02;102946.31;;;-1.75;100.00
59513;BME280;45330;51.634;5.562;2023-01-29T02:04:48;102938.44;;;-1.78;100.00
59513;BME280;45330;51.634;5.562;2023-01-29T02:07:33;102924.94;;;-1.87;100.00
59513;BME280;45330;51.634;5.562;2023-01-29T02:10:18;102960.09;;;-1.73;100.00
59513;BME280;45330;51.634;5.562;2023-01-29T02:12:44;102951.91;;;-1.69;100.00
59513;BME280;45330;51.634;5.562;2023-01-29T02:15:10;102956.59;;;-1.63;100.00
59513;BME280;45330;51.634;5.562;2023-01-29T02:17:36;102951.63;;;-1.62;100.00
59513;BME280;45330;51.634;5.562;2023-01-29T02:25:27;102945.19;;;-1.57;100.00
59513;BME280;45330;51.634;5.562;2023-01-29T02:28:14;102964.78;;;-1.45;100.00
59513;BME280;45330;51.634;5.562;2023-01-29T02:30:47;102950.00;;;-1.49;100.00
59513;BME280;45330;51.634;5.562;2023-01-29T02:33:40;102947.69;;;-1.46;100.00
59513;BME280;45330;51.634;5.562;2023-01-29T02:36:20;102961.63;;;-1.31;100.00
59513;BME280;45330;51.634;5.562;2023-01-29T02:41:45;102955.44;;;-1.23;100.00
59513;BME280;45330;51.634;5.562;2023-01-29T02:44:23;102934.34;;;-1.32;100.00
59513;BME280;45330;51.634;5.562;2023-01-29T02:47:02;102928.31;;;-1.32;100.00
59513;BME280;45330;51.634;5.562;2023-01-29T02:49:34;102928.69;;;-1.28;100.00
59513;BME280;45330;51.634;5.562;2023-01-29T02:54:44;102928.91;;;-1.25;100.00
59513;BME280;45330;51.634;5.562;2023-01-29T02:57:20;102915.25;;;-1.25;100.00
59513;BME280;45330;51.634;5.562;2023-01-29T03:02:36;102929.47;;;-1.17;100.00
59513;BME280;45330;51.634;5.562;2023-01-29T03:05:05;102925.28;;;-1.16;100.00
59513;BME280;45330;51.634;5.562;2023-01-29T03:07:37;102921.91;;;-1.15;100.00
59513;BME280;45330;51.634;5.562;2023-01-29T03:13:11;102944.31;;;-1.01;100.00
59513;BME280;45330;51.634;5.562;2023-01-29T03:15:42;102948.63;;;-1.00;100.00
59513;BME280;45330;51.634;5.562;2023-01-29T03:18:15;102924.84;;;-1.11;100.00
59513;BME280;45330;51.634;5.562;2023-01-29T03:20:46;102947.44;;;-0.93;100.00
59513;BME280;45330;51.634;5.562;2023-01-29T03:23:26;102930.09;;;-0.97;100.00
59513;BME280;45330;51.634;5.562;2023-01-29T03:26:14;102927.97;;;-1.03;100.00
59513;BME280;45330;51.634;5.562;2023-01-29T03:29:00;102931.09;;;-0.95;100.00
59513;BME280;45330;51.634;5.562;2023-01-29T03:31:46;102942.69;;;-0.89;100.00
59513;BME280;45330;51.634;5.562;2023-01-29T03:34:38;102915.28;;;-1.01;100.00
59513;BME280;45330;51.634;5.562;2023-01-29T03:37:21;102931.00;;;-0.97;100.00
59513;BME280;45330;51.634;5.562;2023-01-29T03:39:48;102921.44;;;-0.99;100.00
59513;BME280;45330;51.634;5.562;2023-01-29T03:42:22;102915.56;;;-0.98;100.00
59513;BME280;45330;51.634;5.562;2023-01-29T03:45:13;102931.78;;;-0.86;100.00
59513;BME280;45330;51.634;5.562;2023-01-29T03:47:44;102926.66;;;-0.86;100.00
59513;BME280;45330;51.634;5.562;2023-01-29T03:50:35;102925.00;;;-0.85;100.00
59513;BME280;45330;51.634;5.562;2023-01-29T03:53:27;102925.22;;;-0.82;100.00
59513;BME280;45330;51.634;5.562;2023-01-29T03:56:04;102926.13;;;-0.82;100.00
59513;BME280;45330;51.634;5.562;2023-01-29T03:58:36;102923.78;;;-0.79;100.00
59513;BME280;45330;51.634;5.562;2023-01-29T04:01:10;102920.34;;;-0.79;100.00
59513;BME280;45330;51.634;5.562;2023-01-29T04:03:42;102910.00;;;-0.81;100.00
59513;BME280;45330;51.634;5.562;2023-01-29T04:06:32;102905.00;;;-0.79;100.00
59513;BME280;45330;51.634;5.562;2023-01-29T04:09:39;102901.78;;;-0.77;100.00
59513;BME280;45330;51.634;5.562;2023-01-29T04:12:09;102906.78;;;-0.78;100.00
59513;BME280;45330;51.634;5.562;2023-01-29T04:14:36;102878.66;;;-0.90;100.00
59513;BME280;45330;51.634;5.562;2023-01-29T04:17:18;102878.91;;;-0.87;100.00
59513;BME280;45330;51.634;5.562;2023-01-29T04:19:44;102902.00;;;-0.74;100.00
59513;BME280;45330;51.634;5.562;2023-01-29T04:22:14;102880.75;;;-0.84;100.00
59513;BME280;45330;51.634;5.562;2023-01-29T04:24:42;102886.91;;;-0.82;100.00
59513;BME280;45330;51.634;5.562;2023-01-29T04:32:40;102896.03;;;-0.74;100.00
59513;BME280;45330;51.634;5.562;2023-01-29T04:41:03;102855.66;;;-0.90;100.00
59513;BME280;45330;51.634;5.562;2023-01-29T04:54:30;102841.31;;;-0.76;100.00
59513;BME280;45330;51.634;5.562;2023-01-29T04:59:33;102831.44;;;-0.83;100.00
59513;BME280;45330;51.634;5.562;2023-01-29T05:02:00;102830.44;;;-0.85;100.00
59513;BME280;45330;51.634;5.562;2023-01-29T05:04:28;102826.78;;;-0.77;100.00
59513;BME280;45330;51.634;5.562;2023-01-29T05:07:00;102845.22;;;-0.70;100.00
59513;BME280;45330;51.634;5.562;2023-01-29T05:09:26;102835.44;;;-0.75;100.00
59513;BME280;45330;51.634;5.562;2023-01-29T05:11:52;102836.31;;;-0.75;100.00
59513;BME280;45330;51.634;5.562;2023-01-29T05:14:18;102849.09;;;-0.63;100.00
59513;BME280;45330;51.634;5.562;2023-01-29T05:16:51;102836.22;;;-0.64;100.00
59513;BME280;45330;51.634;5.562;2023-01-29T05:19:17;102824.09;;;-0.67;100.00
59513;BME280;45330;51.634;5.562;2023-01-29T05:21:45;102830.66;;;-0.59;100.00
59513;BME280;45330;51.634;5.562;2023-01-29T05:24:16;102830.97;;;-0.54;100.00
59513;BME280;45330;51.634;5.562;2023-01-29T05:26:44;102826.88;;;-0.52;100.00
59513;BME280;45330;51.634;5.562;2023-01-29T05:29:29;102826.19;;;-0.49;100.00
59513;BME280;45330;51.634;5.562;2023-01-29T05:31:55;102818.63;;;-0.48;100.00
59513;BME280;45330;51.634;5.562;2023-01-29T05:34:20;102813.63;;;-0.46;100.00
59513;BME280;45330;51.634;5.562;2023-01-29T05:36:46;102806.72;;;-0.47;100.00
59513;BME280;45330;51.634;5.562;2023-01-29T05:39:11;102787.50;;;-0.54;100.00
59513;BME280;45330;51.634;5.562;2023-01-29T05:41:37;102810.38;;;-0.44;100.00
59513;BME280;45330;51.634;5.562;2023-01-29T05:44:02;102819.94;;;-0.41;100.00
59513;BME280;45330;51.634;5.562;2023-01-29T05:46:28;102819.94;;;-0.41;100.00
59513;BME280;45330;51.634;5.562;2023-01-29T05:48:53;102809.50;;;-0.44;100.00
59513;BME280;45330;51.634;5.562;2023-01-29T05:51:19;102824.41;;;-0.39;100.00
59513;BME280;45330;51.634;5.562;2023-01-29T05:53:44;102831.41;;;-0.36;100.00
59513;BME280;45330;51.634;5.562;2023-01-29T05:56:09;102840.06;;;-0.34;100.00
59513;BME280;45330;51.634;5.562;2023-01-29T05:58:35;102812.94;;;-0.44;100.00
59513;BME280;45330;51.634;5.562;2023-01-29T06:01:11;102833.28;;;-0.33;100.00
59513;BME280;45330;51.634;5.562;2023-01-29T06:03:37;102847.38;;;-0.27;100.00
59513;BME280;45330;51.634;5.562;2023-01-29T06:06:02;102838.72;;;-0.29;100.00
59513;BME280;45330;51.634;5.562;2023-01-29T06:08:28;102836.16;;;-0.29;100.00
59513;BME280;45330;51.634;5.562;2023-01-29T06:10:53;102804.38;;;-0.44;100.00
59513;BME280;45330;51.634;5.562;2023-01-29T06:13:18;102843.28;;;-0.25;100.00
59513;BME280;45330;51.634;5.562;2023-01-29T06:15:44;102858.94;;;-0.20;100.00
59513;BME280;45330;51.634;5.562;2023-01-29T06:18:09;102858.84;;;-0.22;100.00
59513;BME280;45330;51.634;5.562;2023-01-29T06:20:35;102861.72;;;-0.17;100.00
59513;BME280;45330;51.634;5.562;2023-01-29T06:23:01;102839.69;;;-0.27;100.00
59513;BME280;45330;51.634;5.562;2023-01-29T06:25:26;102850.81;;;-0.14;100.00
59513;BME280;45330;51.634;5.562;2023-01-29T06:27:52;102815.25;;;-0.23;100.00
59513;BME280;45330;51.634;5.562;2023-01-29T06:30:17;102800.56;;;-0.26;100.00
59513;BME280;45330;51.634;5.562;2023-01-29T06:32:42;102804.44;;;-0.19;100.00
59513;BME280;45330;51.634;5.562;2023-01-29T06:35:08;102782.66;;;-0.26;100.00
59513;BME280;45330;51.634;5.562;2023-01-29T06:37:35;102782.66;;;-0.26;100.00
59513;BME280;45330;51.634;5.562;2023-01-29T06:40:00;102798.00;;;-0.26;100.00
59513;BME280;45330;51.634;5.562;2023-01-29T06:42:26;102803.22;;;-0.24;100.00
59513;BME280;45330;51.634;5.562;2023-01-29T06:44:55;102816.56;;;-0.16;100.00
59513;BME280;45330;51.634;5.562;2023-01-29T06:47:22;102805.09;;;-0.22;100.00
59513;BME280;45330;51.634;5.562;2023-01-29T06:49:47;102805.31;;;-0.19;100.00
59513;BME280;45330;51.634;5.562;2023-01-29T06:52:12;102788.44;;;-0.28;100.00
59513;BME280;45330;51.634;5.562;2023-01-29T06:54:38;102814.88;;;-0.16;100.00
59513;BME280;45330;51.634;5.562;2023-01-29T06:57:03;102788.31;;;-0.30;100.00
59513;BME280;45330;51.634;5.562;2023-01-29T06:59:28;102802.84;;;-0.17;100.00
59513;BME280;45330;51.634;5.562;2023-01-29T07:01:54;102812.31;;;-0.16;100.00
59513;BME280;45330;51.634;5.562;2023-01-29T07:04:19;102782.53;;;-0.27;100.00
59513;BME280;45330;51.634;5.562;2023-01-29T07:06:44;102798.09;;;-0.12;100.00
59513;BME280;45330;51.634;5.562;2023-01-29T07:09:13;102806.63;;;-0.12;100.00
59513;BME280;45330;51.634;5.562;2023-01-29T07:11:39;102790.31;;;-0.26;100.00
59513;BME280;45330;51.634;5.562;2023-01-29T07:14:05;102813.63;;;-0.09;100.00
59513;BME280;45330;51.634;5.562;2023-01-29T07:16:30;102821.41;;;-0.08;100.00
59513;BME280;45330;51.634;5.562;2023-01-29T07:18:56;102821.53;;;-0.06;100.00
59513;BME280;45330;51.634;5.562;2023-01-29T07:21:22;102817.28;;;-0.06;100.00
59513;BME280;45330;51.634;5.562;2023-01-29T07:23:47;102795.31;;;-0.15;100.00
59513;BME280;45330;51.634;5.562;2023-01-29T07:26:13;102813.38;;;-0.01;100.00
59513;BME280;45330;51.634;5.562;2023-01-29T07:28:39;102798.84;;;-0.13;100.00
59513;BME280;45330;51.634;5.562;2023-01-29T07:31:05;102808.47;;;0.03;100.00
59513;BME280;45330;51.634;5.562;2023-01-29T07:33:31;102774.38;;;-0.10;100.00
59513;BME280;45330;51.634;5.562;2023-01-29T07:35:57;102778.59;;;-0.10;100.00
59513;BME280;45330;51.634;5.562;2023-01-29T07:38:22;102798.56;;;0.07;100.00
59513;BME280;45330;51.634;5.562;2023-01-29T07:40:50;102801.13;;;0.07;100.00
59513;BME280;45330;51.634;5.562;2023-01-29T07:43:16;102786.13;;;0.00;100.00
59513;BME280;45330;51.634;5.562;2023-01-29T07:45:41;102804.09;;;0.13;100.00
59513;BME280;45330;51.634;5.562;2023-01-29T07:48:10;102809.78;;;0.09;100.00
59513;BME280;45330;51.634;5.562;2023-01-29T07:50:36;102810.44;;;0.19;100.00
59513;BME280;45330;51.634;5.562;2023-01-29T07:53:02;102802.66;;;0.17;100.00
59513;BME280;45330;51.634;5.562;2023-01-29T07:55:28;102793.84;;;0.13;100.00
59513;BME280;45330;51.634;5.562;2023-01-29T07:57:58;102794.53;;;0.11;100.00
59513;BME280;45330;51.634;5.562;2023-01-29T08:00:24;102783.41;;;0.10;100.00
59513;BME280;45330;51.634;5.562;2023-01-29T08:02:49;102800.28;;;0.20;100.00
59513;BME280;45330;51.634;5.562;2023-01-29T08:05:15;102791.22;;;0.25;100.00
59513;BME280;45330;51.634;5.562;2023-01-29T08:07:40;102788.78;;;0.27;100.00
59513;BME280;45330;51.634;5.562;2023-01-29T08:10:06;102797.56;;;0.30;100.00
59513;BME280;45330;51.634;5.562;2023-01-29T08:12:31;102796.78;;;0.31;100.00
59513;BME280;45330;51.634;5.562;2023-01-29T08:14:57;102808.00;;;0.33;100.00
59513;BME280;45330;51.634;5.562;2023-01-29T08:17:22;102782.47;;;0.22;100.00
59513;BME280;45330;51.634;5.562;2023-01-29T08:19:48;102803.09;;;0.37;100.00
59513;BME280;45330;51.634;5.562;2023-01-29T08:22:13;102767.31;;;0.25;100.00
59513;BME280;45330;51.634;5.562;2023-01-29T08:24:40;102791.28;;;0.39;100.00
59513;BME280;45330;51.634;5.562;2023-01-29T08:27:06;102786.63;;;0.33;100.00
59513;BME280;45330;51.634;5.562;2023-01-29T08:29:31;102785.38;;;0.40;100.00
59513;BME280;45330;51.634;5.562;2023-01-29T08:31:57;102751.38;;;0.29;100.00
59513;BME280;45330;51.634;5.562;2023-01-29T08:34:22;102748.81;;;0.29;100.00
59513;BME280;45330;51.634;5.562;2023-01-29T08:36:48;102744.56;;;0.29;100.00
59513;BME280;45330;51.634;5.562;2023-01-29T08:39:13;102749.19;;;0.35;100.00
59513;BME280;45330;51.634;5.562;2023-01-29T08:41:38;102743.41;;;0.38;100.00
59513;BME280;45330;51.634;5.562;2023-01-29T08:44:04;102732.28;;;0.37;100.00
59513;BME280;45330;51.634;5.562;2023-01-29T08:46:30;102739.56;;;0.44;100.00
59513;BME280;45330;51.634;5.562;2023-01-29T08:48:56;102731.13;;;0.45;100.00
59513;BME280;45330;51.634;5.562;2023-01-29T08:51:23;102738.00;;;0.46;100.00
59513;BME280;45330;51.634;5.562;2023-01-29T08:53:49;102740.06;;;0.52;100.00
59513;BME280;45330;51.634;5.562;2023-01-29T08:56:14;102766.81;;;0.69;100.00
59513;BME280;45330;51.634;5.562;2023-01-29T08:58:40;102766.22;;;0.73;100.00
59513;BME280;45330;51.634;5.562;2023-01-29T09:01:08;102768.41;;;0.80;100.00
59513;BME280;45330;51.634;5.562;2023-01-29T09:03:34;102758.16;;;0.80;100.00
59513;BME280;45330;51.634;5.562;2023-01-29T09:05:59;102743.56;;;0.79;100.00
59513;BME280;45330;51.634;5.562;2023-01-29T09:08:24;102753.78;;;0.93;100.00
59513;BME280;45330;51.634;5.562;2023-01-29T09:10:50;102732.03;;;0.86;100.00
59513;BME280;45330;51.634;5.562;2023-01-29T09:13:15;102748.06;;;0.97;100.00
59513;BME280;45330;51.634;5.562;2023-01-29T09:15:41;102747.28;;;0.98;100.00
59513;BME280;45330;51.634;5.562;2023-01-29T09:18:06;102741.38;;;0.99;100.00
59513;BME280;45330;51.634;5.562;2023-01-29T09:20:31;102735.84;;;1.06;100.00
59513;BME280;45330;51.634;5.562;2023-01-29T09:22:57;102743.94;;;1.12;100.00
59513;BME280;45330;51.634;5.562;2023-01-29T09:25:23;102745.53;;;1.10;100.00
59513;BME280;45330;51.634;5.562;2023-01-29T09:27:49;102749.38;;;1.17;100.00
59513;BME280;45330;51.634;5.562;2023-01-29T09:30:14;102739.28;;;1.20;100.00
59513;BME280;45330;51.634;5.562;2023-01-29T09:32:40;102741.94;;;1.22;100.00
59513;BME280;45330;51.634;5.562;2023-01-29T09:35:05;102738.59;;;1.23;100.00
59513;BME280;45330;51.634;5.562;2023-01-29T09:37:31;102708.44;;;1.05;100.00
59513;BME280;45330;51.634;5.562;2023-01-29T09:39:56;102738.78;;;1.26;100.00
59513;BME280;45330;51.634;5.562;2023-01-29T09:42:28;102746.06;;;1.33;100.00
59513;BME280;45330;51.634;5.562;2023-01-29T09:47:26;102750.88;;;1.42;100.00
59513;BME280;45330;51.634;5.562;2023-01-29T09:49:56;102738.38;;;1.46;100.00
59513;BME280;45330;51.634;5.562;2023-01-29T09:52:31;102729.22;;;1.36;100.00
59513;BME280;45330;51.634;5.562;2023-01-29T09:55:06;102741.91;;;1.48;100.00
59513;BME280;45330;51.634;5.562;2023-01-29T09:57:47;102746.16;;;1.48;100.00
59513;BME280;45330;51.634;5.562;2023-01-29T10:00:47;102741.47;;;1.56;100.00
59513;BME280;45330;51.634;5.562;2023-01-29T10:19:51;102718.25;;;1.67;100.00
59513;BME280;45330;51.634;5.562;2023-01-29T10:25:20;102743.94;;;1.82;100.00
59513;BME280;45330;51.634;5.562;2023-01-29T10:27:50;102719.50;;;1.74;100.00
59513;BME280;45330;51.634;5.562;2023-01-29T10:30:26;102740.78;;;1.86;100.00
59513;BME280;45330;51.634;5.562;2023-01-29T10:32:54;102729.34;;;1.81;100.00
59513;BME280;45330;51.634;5.562;2023-01-29T10:35:42;102742.75;;;1.91;100.00
59513;BME280;45330;51.634;5.562;2023-01-29T11:00:25;102713.47;;;2.32;100.00
59513;BME280;45330;51.634;5.562;2023-01-29T11:02:52;102687.34;;;2.24;100.00
59513;BME280;45330;51.634;5.562;2023-01-29T11:05:22;102693.53;;;2.28;100.00
59513;BME280;45330;51.634;5.562;2023-01-29T11:07:59;102669.09;;;2.34;100.00
59513;BME280;45330;51.634;5.562;2023-01-29T11:10:26;102688.03;;;2.51;100.00
59513;BME280;45330;51.634;5.562;2023-01-29T11:12:51;102694.34;;;2.56;100.00
59513;BME280;45330;51.634;5.562;2023-01-29T11:18:04;102663.56;;;2.73;100.00
59513;BME280;45330;51.634;5.562;2023-01-29T11:20:31;102656.00;;;2.76;100.00
59513;BME280;45330;51.634;5.562;2023-01-29T11:22:56;102652.81;;;2.80;100.00
59513;BME280;45330;51.634;5.562;2023-01-29T11:25:23;102651.34;;;2.85;100.00
59513;BME280;45330;51.634;5.562;2023-01-29T11:27:57;102634.25;;;2.86;100.00
59513;BME280;45330;51.634;5.562;2023-01-29T11:30:33;102640.78;;;2.96;100.00
59513;BME280;45330;51.634;5.562;2023-01-29T11:33:17;102645.84;;;3.11;100.00
59513;BME280;45330;51.634;5.562;2023-01-29T11:35:43;102617.47;;;3.09;100.00
59513;BME280;45330;51.634;5.562;2023-01-29T11:40:40;102625.03;;;3.39;100.00
59513;BME280;45330;51.634;5.562;2023-01-29T11:45:38;102627.00;;;3.26;100.00
59513;BME280;45330;51.634;5.562;2023-01-29T11:48:05;102593.47;;;3.08;100.00
59513;BME280;45330;51.634;5.562;2023-01-29T11:50:37;102589.97;;;3.08;100.00
59513;BME280;45330;51.634;5.562;2023-01-29T11:53:03;102599.81;;;3.15;100.00
59513;BME280;45330;51.634;5.562;2023-01-29T11:55:32;102592.47;;;3.06;100.00
59513;BME280;45330;51.634;5.562;2023-01-29T11:58:11;102588.25;;;3.07;100.00
59513;BME280;45330;51.634;5.562;2023-01-29T12:00:40;102573.44;;;3.03;100.00
59513;BME280;45330;51.634;5.562;2023-01-29T12:03:43;102582.69;;;3.16;100.00
59513;BME280;45330;51.634;5.562;2023-01-29T12:06:07;102570.47;;;3.12;100.00
59513;BME280;45330;51.634;5.562;2023-01-29T12:08:38;102565.25;;;3.10;100.00
59513;BME280;45330;51.634;5.562;2023-01-29T12:11:27;102576.66;;;3.15;100.00
59513;BME280;45330;51.634;5.562;2023-01-29T12:13:55;102581.47;;;3.09;100.00
59513;BME280;45330;51.634;5.562;2023-01-29T12:16:25;102571.81;;;3.05;100.00
59513;BME280;45330;51.634;5.562;2023-01-29T12:21:42;102539.28;;;2.89;100.00
59513;BME280;45330;51.634;5.562;2023-01-29T12:24:37;102552.88;;;3.03;100.00
59513;BME280;45330;51.634;5.562;2023-01-29T12:27:59;102530.28;;;2.97;100.00
59513;BME280;45330;51.634;5.562;2023-01-29T12:30:10;102548.13;;;3.11;100.00
59513;BME280;45330;51.634;5.562;2023-01-29T12:32:48;102543.94;;;3.13;100.00
59513;BME280;45330;51.634;5.562;2023-01-29T12:35:22;102533.25;;;3.05;100.00
59513;BME280;45330;51.634;5.562;2023-01-29T12:38:02;102523.88;;;3.05;100.00
59513;BME280;45330;51.634;5.562;2023-01-29T12:40:32;102507.16;;;2.97;100.00
59513;BME280;45330;51.634;5.562;2023-01-29T12:43:11;102509.94;;;3.02;100.00
59513;BME280;45330;51.634;5.562;2023-01-29T12:45:40;102509.88;;;3.00;100.00
59513;BME280;45330;51.634;5.562;2023-01-29T12:48:09;102506.44;;;3.00;100.00
59513;BME280;45330;51.634;5.562;2023-01-29T12:50:37;102519.53;;;3.04;100.00
59513;BME280;45330;51.634;5.562;2023-01-29T12:53:30;102499.81;;;3.05;100.00
59513;BME280;45330;51.634;5.562;2023-01-29T12:56:01;102504.66;;;2.99;100.00
59513;BME280;45330;51.634;5.562;2023-01-29T12:58:36;102505.59;;;3.01;100.00
59513;BME280;45330;51.634;5.562;2023-01-29T13:03:48;102494.38;;;2.99;100.00
59513;BME280;45330;51.634;5.562;2023-01-29T13:06:19;102486.34;;;2.92;100.00
59513;BME280;45330;51.634;5.562;2023-01-29T13:08:53;102474.78;;;2.84;100.00
59513;BME280;45330;51.634;5.562;2023-01-29T13:11:28;102477.56;;;2.89;100.00
59513;BME280;45330;51.634;5.562;2023-01-29T13:14:01;102461.75;;;2.81;100.00
59513;BME280;45330;51.634;5.562;2023-01-29T13:16:34;102476.38;;;2.99;100.00
59513;BME280;45330;51.634;5.562;2023-01-29T13:19:04;102448.16;;;2.84;100.00
59513;BME280;45330;51.634;5.562;2023-01-29T13:21:35;102449.16;;;2.86;100.00
59513;BME280;45330;51.634;5.562;2023-01-29T13:24:13;102440.59;;;2.87;100.00
59513;BME280;45330;51.634;5.562;2023-01-29T13:26:43;102441.16;;;2.98;100.00
59513;BME280;45330;51.634;5.562;2023-01-29T13:29:21;102450.63;;;3.15;100.00
59513;BME280;45330;51.634;5.562;2023-01-29T13:31:48;102434.88;;;3.09;100.00
59513;BME280;45330;51.634;5.562;2023-01-29T13:34:21;102442.25;;;3.19;100.00
59513;BME280;45330;51.634;5.562;2023-01-29T13:36:59;102423.00;;;3.11;100.00
59513;BME280;45330;51.634;5.562;2023-01-29T13:39:29;102414.63;;;3.15;100.00
59513;BME280;45330;51.634;5.562;2023-01-29T13:41:57;102433.81;;;3.40;100.00
59513;BME280;45330;51.634;5.562;2023-01-29T13:44:32;102432.41;;;3.29;100.00
59513;BME280;45330;51.634;5.562;2023-01-29T13:47:05;102424.41;;;3.22;100.00
59513;BME280;45330;51.634;5.562;2023-01-29T13:52:15;102424.84;;;3.14;100.00
59513;BME280;45330;51.634;5.562;2023-01-29T13:54:49;102427.31;;;3.12;100.00
59513;BME280;45330;51.634;5.562;2023-01-29T13:57:54;102428.94;;;3.10;100.00
59513;BME280;45330;51.634;5.562;2023-01-29T14:05:42;102403.81;;;2.88;100.00
59513;BME280;45330;51.634;5.562;2023-01-29T14:10:35;102417.88;;;2.95;100.00
59513;BME280;45330;51.634;5.562;2023-01-29T14:15:36;102379.00;;;2.88;100.00
59513;BME280;45330;51.634;5.562;2023-01-29T14:18:18;102396.16;;;3.06;100.00
59513;BME280;45330;51.634;5.562;2023-01-29T14:21:04;102375.09;;;2.97;100.00
59513;BME280;45330;51.634;5.562;2023-01-29T14:26:25;102396.44;;;3.12;100.00
59513;BME280;45330;51.634;5.562;2023-01-29T14:29:04;102380.94;;;3.11;100.00
59513;BME280;45330;51.634;5.562;2023-01-29T14:34:04;102384.22;;;3.08;100.00
59513;BME280;45330;51.634;5.562;2023-01-29T14:36:39;102386.16;;;3.12;100.00
59513;BME280;45330;51.634;5.562;2023-01-29T14:39:41;102373.78;;;3.05;100.00
59513;BME280;45330;51.634;5.562;2023-01-29T14:42:12;102363.38;;;3.02;100.00
59513;BME280;45330;51.634;5.562;2023-01-29T14:52:46;102375.84;;;3.12;100.00
59513;BME280;45330;51.634;5.562;2023-01-29T14:57:51;102374.25;;;3.14;100.00
59513;BME280;45330;51.634;5.562;2023-01-29T15:00:29;102348.91;;;3.04;100.00
59513;BME280;45330;51.634;5.562;2023-01-29T15:02:57;102346.47;;;3.07;100.00
59513;BME280;45330;51.634;5.562;2023-01-29T15:05:26;102349.72;;;3.03;100.00
59513;BME280;45330;51.634;5.562;2023-01-29T15:08:03;102361.53;;;3.17;100.00
59513;BME280;45330;51.634;5.562;2023-01-29T15:11:06;102365.38;;;3.25;100.00